sensor_id;sensor_type;location;lat;lon;timestamp;P1;durP1;ratioP1;P2;durP2;ratioP2
68247;SDS011;55064;49.636;12.164;2022-07-29T00:01:13;6.43;;;2.03;;
68247;SDS011;55064;49.636;12.164;2022-07-29T00:03:40;5.95;;;2.08;;
68247;SDS011;55064;49.636;12.164;2022-07-29T00:06:05;6.03;;;1.90;;
68247;SDS011;55064;49.636;12.164;2022-07-29T00:08:31;7.43;;;2.00;;
68247;SDS011;55064;49.636;12.164;2022-07-29T00:10:56;6.03;;;1.93;;
68247;SDS011;55064;49.636;12.164;2022-07-29T00:13:21;6.22;;;2.05;;
68247;SDS011;55064;49.636;12.164;2022-07-29T00:15:47;6.00;;;2.10;;
68247;SDS011;55064;49.636;12.164;2022-07-29T00:18:14;5.93;;;2.10;;
68247;SDS011;55064;49.636;12.164;2022-07-29T00:20:40;6.18;;;1.80;;
68247;SDS011;55064;49.636;12.164;2022-07-29T00:23:05;5.50;;;1.97;;
68247;SDS011;55064;49.636;12.164;2022-07-29T00:25:33;6.28;;;1.83;;
68247;SDS011;55064;49.636;12.164;2022-07-29T00:27:58;7.90;;;2.13;;
68247;SDS011;55064;49.636;12.164;2022-07-29T00:30:29;5.43;;;1.80;;
68247;SDS011;55064;49.636;12.164;2022-07-29T00:32:54;6.25;;;1.95;;
68247;SDS011;55064;49.636;12.164;2022-07-29T00:35:22;5.80;;;2.00;;
68247;SDS011;55064;49.636;12.164;2022-07-29T00:38:08;6.57;;;2.30;;
68247;SDS011;55064;49.636;12.164;2022-07-29T00:40:36;7.20;;;2.17;;
68247;SDS011;55064;49.636;12.164;2022-07-29T00:43:02;6.27;;;2.00;;
68247;SDS011;55064;49.636;12.164;2022-07-29T00:45:27;5.35;;;1.92;;
68247;SDS011;55064;49.636;12.164;2022-07-29T00:47:57;5.53;;;1.80;;
68247;SDS011;55064;49.636;12.164;2022-07-29T00:50:25;6.60;;;2.13;;
68247;SDS011;55064;49.636;12.164;2022-07-29T00:52:51;5.95;;;1.92;;
68247;SDS011;55064;49.636;12.164;2022-07-29T00:55:17;7.50;;;1.88;;
68247;SDS011;55064;49.636;12.164;2022-07-29T00:57:43;6.23;;;1.97;;
68247;SDS011;55064;49.636;12.164;2022-07-29T01:00:10;5.30;;;2.17;;
68247;SDS011;55064;49.636;12.164;2022-07-29T01:02:44;4.93;;;2.20;;
68247;SDS011;55064;49.636;12.164;2022-07-29T01:05:13;5.45;;;2.03;;
68247;SDS011;55064;49.636;12.164;2022-07-29T01:07:40;7.18;;;2.00;;
68247;SDS011;55064;49.636;12.164;2022-07-29T01:10:07;8.00;;;1.87;;
68247;SDS011;55064;49.636;12.164;2022-07-29T01:12:34;6.10;;;2.00;;
68247;SDS011;55064;49.636;12.164;2022-07-29T01:15:02;6.55;;;1.90;;
68247;SDS011;55064;49.636;12.164;2022-07-29T01:17:32;4.65;;;1.80;;
68247;SDS011;55064;49.636;12.164;2022-07-29T01:22:44;6.03;;;2.10;;
68247;SDS011;55064;49.636;12.164;2022-07-29T01:30:25;7.23;;;1.97;;
68247;SDS011;55064;49.636;12.164;2022-07-29T01:32:58;5.43;;;2.10;;
68247;SDS011;55064;49.636;12.164;2022-07-29T01:35:30;6.25;;;2.00;;
68247;SDS011;55064;49.636;12.164;2022-07-29T01:38:16;6.63;;;1.90;;
68247;SDS011;55064;49.636;12.164;2022-07-29T01:40:58;4.77;;;2.00;;
68247;SDS011;55064;49.636;12.164;2022-07-29T01:43:34;4.88;;;2.05;;
68247;SDS011;55064;49.636;12.164;2022-07-29T01:46:09;5.90;;;1.90;;
68247;SDS011;55064;49.636;12.164;2022-07-29T01:49:06;7.50;;;2.20;;
68247;SDS011;55064;49.636;12.164;2022-07-29T01:51:46;5.28;;;2.10;;
68247;SDS011;55064;49.636;12.164;2022-07-29T01:54:20;6.90;;;2.20;;
68247;SDS011;55064;49.636;12.164;2022-07-29T01:56:48;10.38;;;2.25;;
68247;SDS011;55064;49.636;12.164;2022-07-29T01:59:18;6.07;;;1.92;;
68247;SDS011;55064;49.636;12.164;2022-07-29T02:01:49;7.57;;;1.92;;
68247;SDS011;55064;49.636;12.164;2022-07-29T02:04:21;6.22;;;2.20;;
68247;SDS011;55064;49.636;12.164;2022-07-29T02:06:50;6.60;;;2.17;;
68247;SDS011;55064;49.636;12.164;2022-07-29T02:09:20;6.88;;;1.90;;
68247;SDS011;55064;49.636;12.164;2022-07-29T02:11:53;6.40;;;2.05;;
68247;SDS011;55064;49.636;12.164;2022-07-29T02:14:23;6.55;;;1.83;;
68247;SDS011;55064;49.636;12.164;2022-07-29T02:16:54;6.18;;;1.90;;
68247;SDS011;55064;49.636;12.164;2022-07-29T02:19:24;4.43;;;1.80;;
68247;SDS011;55064;49.636;12.164;2022-07-29T02:21:53;5.95;;;1.85;;
68247;SDS011;55064;49.636;12.164;2022-07-29T02:24:21;7.32;;;1.75;;
68247;SDS011;55064;49.636;12.164;2022-07-29T02:26:51;6.68;;;2.03;;
68247;SDS011;55064;49.636;12.164;2022-07-29T02:29:20;5.95;;;2.00;;
68247;SDS011;55064;49.636;12.164;2022-07-29T02:31:52;4.60;;;1.63;;
68247;SDS011;55064;49.636;12.164;2022-07-29T02:34:19;5.65;;;1.75;;
68247;SDS011;55064;49.636;12.164;2022-07-29T02:36:48;4.57;;;1.60;;
68247;SDS011;55064;49.636;12.164;2022-07-29T02:39:15;4.65;;;1.67;;
68247;SDS011;55064;49.636;12.164;2022-07-29T02:44:15;5.93;;;1.77;;
68247;SDS011;55064;49.636;12.164;2022-07-29T02:46:57;6.43;;;2.03;;
68247;SDS011;55064;49.636;12.164;2022-07-29T02:57:57;5.10;;;1.90;;
68247;SDS011;55064;49.636;12.164;2022-07-29T03:00:27;10.48;;;2.17;;
68247;SDS011;55064;49.636;12.164;2022-07-29T03:02:55;7.35;;;1.70;;
68247;SDS011;55064;49.636;12.164;2022-07-29T03:05:27;5.32;;;2.00;;
68247;SDS011;55064;49.636;12.164;2022-07-29T03:07:57;5.25;;;2.00;;
68247;SDS011;55064;49.636;12.164;2022-07-29T03:10:25;4.73;;;1.50;;
68247;SDS011;55064;49.636;12.164;2022-07-29T03:12:51;6.28;;;1.80;;
68247;SDS011;55064;49.636;12.164;2022-07-29T03:15:22;7.22;;;1.90;;
68247;SDS011;55064;49.636;12.164;2022-07-29T03:17:47;6.30;;;1.80;;
68247;SDS011;55064;49.636;12.164;2022-07-29T03:20:14;6.50;;;1.80;;
68247;SDS011;55064;49.636;12.164;2022-07-29T03:22:40;6.43;;;2.00;;
68247;SDS011;55064;49.636;12.164;2022-07-29T03:25:11;6.55;;;1.92;;
68247;SDS011;55064;49.636;12.164;2022-07-29T03:27:37;7.93;;;2.15;;
68247;SDS011;55064;49.636;12.164;2022-07-29T03:30:08;5.10;;;1.80;;
68247;SDS011;55064;49.636;12.164;2022-07-29T03:32:37;5.15;;;2.20;;
68247;SDS011;55064;49.636;12.164;2022-07-29T03:35:03;5.63;;;2.07;;
68247;SDS011;55064;49.636;12.164;2022-07-29T03:37:32;7.90;;;1.92;;
68247;SDS011;55064;49.636;12.164;2022-07-29T03:40:05;5.55;;;1.83;;
68247;SDS011;55064;49.636;12.164;2022-07-29T03:42:35;6.45;;;2.17;;
68247;SDS011;55064;49.636;12.164;2022-07-29T03:45:04;6.97;;;2.00;;
68247;SDS011;55064;49.636;12.164;2022-07-29T03:47:35;5.77;;;2.17;;
68247;SDS011;55064;49.636;12.164;2022-07-29T03:50:08;6.22;;;2.10;;
68247;SDS011;55064;49.636;12.164;2022-07-29T03:52:36;6.43;;;2.03;;
68247;SDS011;55064;49.636;12.164;2022-07-29T03:55:02;6.50;;;2.30;;
68247;SDS011;55064;49.636;12.164;2022-07-29T03:57:28;6.97;;;1.97;;
68247;SDS011;55064;49.636;12.164;2022-07-29T03:59:55;5.05;;;2.00;;
68247;SDS011;55064;49.636;12.164;2022-07-29T04:02:22;6.45;;;2.00;;
68247;SDS011;55064;49.636;12.164;2022-07-29T04:04:50;7.32;;;1.85;;
68247;SDS011;55064;49.636;12.164;2022-07-29T04:07:18;4.72;;;1.80;;
68247;SDS011;55064;49.636;12.164;2022-07-29T04:09:46;6.57;;;2.27;;
68247;SDS011;55064;49.636;12.164;2022-07-29T04:12:11;7.88;;;2.20;;
68247;SDS011;55064;49.636;12.164;2022-07-29T04:14:39;5.40;;;2.03;;
68247;SDS011;55064;49.636;12.164;2022-07-29T04:17:07;7.38;;;2.22;;
68247;SDS011;55064;49.636;12.164;2022-07-29T04:19:33;7.15;;;2.35;;
68247;SDS011;55064;49.636;12.164;2022-07-29T04:22:03;4.93;;;1.93;;
68247;SDS011;55064;49.636;12.164;2022-07-29T04:24:31;5.63;;;2.10;;
68247;SDS011;55064;49.636;12.164;2022-07-29T04:27:01;8.13;;;2.05;;
68247;SDS011;55064;49.636;12.164;2022-07-29T04:29:29;6.00;;;2.10;;
68247;SDS011;55064;49.636;12.164;2022-07-29T04:31:55;6.00;;;2.10;;
68247;SDS011;55064;49.636;12.164;2022-07-29T04:34:20;4.90;;;1.90;;
68247;SDS011;55064;49.636;12.164;2022-07-29T04:36:50;8.55;;;2.40;;
68247;SDS011;55064;49.636;12.164;2022-07-29T04:39:16;7.27;;;2.20;;
68247;SDS011;55064;49.636;12.164;2022-07-29T04:41:44;6.20;;;2.25;;
68247;SDS011;55064;49.636;12.164;2022-07-29T04:44:09;5.60;;;2.10;;
68247;SDS011;55064;49.636;12.164;2022-07-29T04:46:37;8.07;;;1.92;;
68247;SDS011;55064;49.636;12.164;2022-07-29T04:49:07;5.65;;;2.10;;
68247;SDS011;55064;49.636;12.164;2022-07-29T04:51:33;5.80;;;2.03;;
68247;SDS011;55064;49.636;12.164;2022-07-29T04:53:58;6.70;;;2.30;;
68247;SDS011;55064;49.636;12.164;2022-07-29T04:56:24;6.88;;;2.38;;
68247;SDS011;55064;49.636;12.164;2022-07-29T04:58:49;5.43;;;2.30;;
68247;SDS011;55064;49.636;12.164;2022-07-29T05:01:17;5.47;;;2.37;;
68247;SDS011;55064;49.636;12.164;2022-07-29T05:03:43;6.90;;;2.17;;
68247;SDS011;55064;49.636;12.164;2022-07-29T05:06:10;8.57;;;2.35;;
68247;SDS011;55064;49.636;12.164;2022-07-29T05:08:35;6.30;;;2.30;;
68247;SDS011;55064;49.636;12.164;2022-07-29T05:11:01;6.20;;;2.25;;
68247;SDS011;55064;49.636;12.164;2022-07-29T05:13:29;6.95;;;2.45;;
68247;SDS011;55064;49.636;12.164;2022-07-29T05:15:55;7.13;;;2.20;;
68247;SDS011;55064;49.636;12.164;2022-07-29T05:18:25;7.55;;;2.47;;
68247;SDS011;55064;49.636;12.164;2022-07-29T05:20:53;6.13;;;2.17;;
68247;SDS011;55064;49.636;12.164;2022-07-29T05:23:21;11.35;;;3.22;;
68247;SDS011;55064;49.636;12.164;2022-07-29T05:25:46;4.95;;;2.10;;
68247;SDS011;55064;49.636;12.164;2022-07-29T05:28:12;6.20;;;2.50;;
68247;SDS011;55064;49.636;12.164;2022-07-29T05:30:39;6.03;;;2.30;;
68247;SDS011;55064;49.636;12.164;2022-07-29T05:33:07;6.60;;;2.63;;
68247;SDS011;55064;49.636;12.164;2022-07-29T05:35:33;5.13;;;2.50;;
68247;SDS011;55064;49.636;12.164;2022-07-29T05:38:02;10.60;;;2.83;;
68247;SDS011;55064;49.636;12.164;2022-07-29T05:40:31;6.43;;;2.60;;
68247;SDS011;55064;49.636;12.164;2022-07-29T05:42:59;6.55;;;2.35;;
68247;SDS011;55064;49.636;12.164;2022-07-29T05:45:24;7.90;;;2.55;;
68247;SDS011;55064;49.636;12.164;2022-07-29T05:47:52;5.50;;;2.33;;
68247;SDS011;55064;49.636;12.164;2022-07-29T05:50:18;6.07;;;2.40;;
68247;SDS011;55064;49.636;12.164;2022-07-29T05:52:43;7.73;;;2.47;;
68247;SDS011;55064;49.636;12.164;2022-07-29T05:55:11;5.25;;;2.10;;
68247;SDS011;55064;49.636;12.164;2022-07-29T05:57:41;6.93;;;2.70;;
68247;SDS011;55064;49.636;12.164;2022-07-29T06:00:10;7.23;;;2.60;;
68247;SDS011;55064;49.636;12.164;2022-07-29T06:02:39;6.75;;;2.40;;
68247;SDS011;55064;49.636;12.164;2022-07-29T06:05:04;5.53;;;2.27;;
68247;SDS011;55064;49.636;12.164;2022-07-29T06:07:30;5.27;;;2.17;;
68247;SDS011;55064;49.636;12.164;2022-07-29T06:09:58;7.18;;;2.78;;
68247;SDS011;55064;49.636;12.164;2022-07-29T06:12:25;8.13;;;2.70;;
68247;SDS011;55064;49.636;12.164;2022-07-29T06:14:51;9.23;;;2.50;;
68247;SDS011;55064;49.636;12.164;2022-07-29T06:17:16;6.40;;;2.40;;
68247;SDS011;55064;49.636;12.164;2022-07-29T06:19:44;6.55;;;2.50;;
68247;SDS011;55064;49.636;12.164;2022-07-29T06:22:12;6.90;;;2.75;;
68247;SDS011;55064;49.636;12.164;2022-07-29T06:24:42;5.47;;;2.45;;
68247;SDS011;55064;49.636;12.164;2022-07-29T06:27:09;6.87;;;2.40;;
68247;SDS011;55064;49.636;12.164;2022-07-29T06:29:42;6.95;;;2.33;;
68247;SDS011;55064;49.636;12.164;2022-07-29T06:32:07;5.83;;;2.77;;
68247;SDS011;55064;49.636;12.164;2022-07-29T06:34:34;6.28;;;2.38;;
68247;SDS011;55064;49.636;12.164;2022-07-29T06:37:00;5.43;;;2.50;;
68247;SDS011;55064;49.636;12.164;2022-07-29T06:39:27;5.10;;;2.30;;
68247;SDS011;55064;49.636;12.164;2022-07-29T06:41:53;9.33;;;2.50;;
68247;SDS011;55064;49.636;12.164;2022-07-29T06:44:18;8.02;;;2.38;;
68247;SDS011;55064;49.636;12.164;2022-07-29T06:46:44;5.67;;;2.00;;
68247;SDS011;55064;49.636;12.164;2022-07-29T06:49:16;6.00;;;2.33;;
68247;SDS011;55064;49.636;12.164;2022-07-29T06:51:41;6.83;;;2.60;;
68247;SDS011;55064;49.636;12.164;2022-07-29T06:54:09;7.70;;;2.50;;
68247;SDS011;55064;49.636;12.164;2022-07-29T06:56:37;5.87;;;2.43;;
68247;SDS011;55064;49.636;12.164;2022-07-29T06:59:03;7.65;;;2.53;;
68247;SDS011;55064;49.636;12.164;2022-07-29T07:01:31;7.75;;;2.47;;
68247;SDS011;55064;49.636;12.164;2022-07-29T07:03:57;6.47;;;2.37;;
68247;SDS011;55064;49.636;12.164;2022-07-29T07:06:22;8.57;;;2.77;;
68247;SDS011;55064;49.636;12.164;2022-07-29T07:08:48;5.57;;;2.30;;
68247;SDS011;55064;49.636;12.164;2022-07-29T07:11:15;8.25;;;2.78;;
68247;SDS011;55064;49.636;12.164;2022-07-29T07:13:41;8.70;;;2.83;;
68247;SDS011;55064;49.636;12.164;2022-07-29T07:16:06;7.20;;;2.40;;
68247;SDS011;55064;49.636;12.164;2022-07-29T07:18:34;7.30;;;2.60;;
68247;SDS011;55064;49.636;12.164;2022-07-29T07:21:03;7.97;;;2.42;;
68247;SDS011;55064;49.636;12.164;2022-07-29T07:23:31;10.35;;;3.05;;
68247;SDS011;55064;49.636;12.164;2022-07-29T07:25:59;6.88;;;2.50;;
68247;SDS011;55064;49.636;12.164;2022-07-29T07:28:24;6.83;;;2.60;;
68247;SDS011;55064;49.636;12.164;2022-07-29T07:30:52;7.63;;;2.53;;
68247;SDS011;55064;49.636;12.164;2022-07-29T07:33:17;7.37;;;2.93;;
68247;SDS011;55064;49.636;12.164;2022-07-29T07:35:43;7.77;;;2.63;;
68247;SDS011;55064;49.636;12.164;2022-07-29T07:38:10;10.07;;;3.03;;
68247;SDS011;55064;49.636;12.164;2022-07-29T07:40:36;8.00;;;2.80;;
68247;SDS011;55064;49.636;12.164;2022-07-29T07:43:02;7.45;;;2.90;;
68247;SDS011;55064;49.636;12.164;2022-07-29T07:45:27;9.43;;;3.40;;
68247;SDS011;55064;49.636;12.164;2022-07-29T07:47:53;6.15;;;3.00;;
68247;SDS011;55064;49.636;12.164;2022-07-29T07:50:18;6.87;;;2.60;;
68247;SDS011;55064;49.636;12.164;2022-07-29T07:52:50;6.57;;;2.77;;
68247;SDS011;55064;49.636;12.164;2022-07-29T07:55:22;6.85;;;3.10;;
68247;SDS011;55064;49.636;12.164;2022-07-29T07:57:53;6.82;;;3.20;;
68247;SDS011;55064;49.636;12.164;2022-07-29T08:00:19;9.55;;;3.35;;
68247;SDS011;55064;49.636;12.164;2022-07-29T08:02:46;7.17;;;3.30;;
68247;SDS011;55064;49.636;12.164;2022-07-29T08:05:14;7.13;;;3.20;;
68247;SDS011;55064;49.636;12.164;2022-07-29T08:07:46;7.32;;;3.60;;
68247;SDS011;55064;49.636;12.164;2022-07-29T08:10:12;8.18;;;3.42;;
68247;SDS011;55064;49.636;12.164;2022-07-29T08:13:02;9.25;;;3.40;;
68247;SDS011;55064;49.636;12.164;2022-07-29T08:15:33;6.77;;;3.23;;
68247;SDS011;55064;49.636;12.164;2022-07-29T08:17:59;6.60;;;3.38;;
68247;SDS011;55064;49.636;12.164;2022-07-29T08:20:27;7.40;;;3.37;;
68247;SDS011;55064;49.636;12.164;2022-07-29T08:22:52;8.88;;;3.45;;
68247;SDS011;55064;49.636;12.164;2022-07-29T08:25:18;7.00;;;3.28;;
68247;SDS011;55064;49.636;12.164;2022-07-29T08:27:49;6.97;;;3.27;;
68247;SDS011;55064;49.636;12.164;2022-07-29T08:30:14;6.28;;;3.20;;
68247;SDS011;55064;49.636;12.164;2022-07-29T08:32:42;6.73;;;3.53;;
68247;SDS011;55064;49.636;12.164;2022-07-29T08:35:12;7.03;;;3.50;;
68247;SDS011;55064;49.636;12.164;2022-07-29T08:37:40;9.02;;;3.90;;
68247;SDS011;55064;49.636;12.164;2022-07-29T08:40:06;10.23;;;3.78;;
68247;SDS011;55064;49.636;12.164;2022-07-29T08:42:37;8.88;;;4.30;;
68247;SDS011;55064;49.636;12.164;2022-07-29T08:45:05;8.67;;;3.67;;
68247;SDS011;55064;49.636;12.164;2022-07-29T08:47:36;8.38;;;4.22;;
68247;SDS011;55064;49.636;12.164;2022-07-29T08:50:05;7.37;;;4.00;;
68247;SDS011;55064;49.636;12.164;2022-07-29T08:52:35;9.23;;;4.57;;
68247;SDS011;55064;49.636;12.164;2022-07-29T08:55:04;8.55;;;3.83;;
68247;SDS011;55064;49.636;12.164;2022-07-29T08:57:31;8.85;;;4.10;;
68247;SDS011;55064;49.636;12.164;2022-07-29T09:00:00;8.02;;;4.00;;
68247;SDS011;55064;49.636;12.164;2022-07-29T09:02:29;6.17;;;3.40;;
68247;SDS011;55064;49.636;12.164;2022-07-29T09:05:02;7.65;;;4.30;;
68247;SDS011;55064;49.636;12.164;2022-07-29T09:07:32;8.32;;;4.10;;
68247;SDS011;55064;49.636;12.164;2022-07-29T09:10:00;7.20;;;4.10;;
68247;SDS011;55064;49.636;12.164;2022-07-29T09:12:26;7.25;;;4.25;;
68247;SDS011;55064;49.636;12.164;2022-07-29T09:14:52;8.80;;;4.20;;
68247;SDS011;55064;49.636;12.164;2022-07-29T09:17:38;7.68;;;4.35;;
68247;SDS011;55064;49.636;12.164;2022-07-29T09:20:12;8.10;;;4.73;;
68247;SDS011;55064;49.636;12.164;2022-07-29T09:22:39;7.10;;;4.67;;
68247;SDS011;55064;49.636;12.164;2022-07-29T09:25:07;7.35;;;4.60;;
68247;SDS011;55064;49.636;12.164;2022-07-29T09:27:35;8.57;;;4.60;;
68247;SDS011;55064;49.636;12.164;2022-07-29T09:30:03;7.07;;;4.40;;
68247;SDS011;55064;49.636;12.164;2022-07-29T09:32:31;9.57;;;4.65;;
68247;SDS011;55064;49.636;12.164;2022-07-29T09:35:19;8.37;;;4.23;;
68247;SDS011;55064;49.636;12.164;2022-07-29T09:37:47;8.15;;;4.93;;
68247;SDS011;55064;49.636;12.164;2022-07-29T09:40:19;7.60;;;4.25;;
68247;SDS011;55064;49.636;12.164;2022-07-29T09:42:46;17.13;;;4.47;;
68247;SDS011;55064;49.636;12.164;2022-07-29T09:45:32;8.18;;;4.50;;
68247;SDS011;55064;49.636;12.164;2022-07-29T09:47:59;6.97;;;4.47;;
68247;SDS011;55064;49.636;12.164;2022-07-29T09:50:41;8.18;;;4.57;;
68247;SDS011;55064;49.636;12.164;2022-07-29T09:53:11;7.85;;;4.15;;
68247;SDS011;55064;49.636;12.164;2022-07-29T09:55:51;7.73;;;4.70;;
68247;SDS011;55064;49.636;12.164;2022-07-29T09:58:20;8.20;;;4.65;;
68247;SDS011;55064;49.636;12.164;2022-07-29T10:00:51;7.30;;;4.60;;
68247;SDS011;55064;49.636;12.164;2022-07-29T10:03:20;7.90;;;4.60;;
68247;SDS011;55064;49.636;12.164;2022-07-29T10:06:09;8.90;;;4.57;;
68247;SDS011;55064;49.636;12.164;2022-07-29T10:08:39;9.00;;;4.30;;
68247;SDS011;55064;49.636;12.164;2022-07-29T10:11:10;8.63;;;4.75;;
68247;SDS011;55064;49.636;12.164;2022-07-29T10:13:37;8.48;;;4.80;;
68247;SDS011;55064;49.636;12.164;2022-07-29T10:16:03;9.30;;;5.03;;
68247;SDS011;55064;49.636;12.164;2022-07-29T10:18:29;8.20;;;4.50;;
68247;SDS011;55064;49.636;12.164;2022-07-29T10:20:55;7.60;;;4.95;;
68247;SDS011;55064;49.636;12.164;2022-07-29T10:23:21;8.43;;;4.72;;
68247;SDS011;55064;49.636;12.164;2022-07-29T10:25:46;7.63;;;4.87;;
68247;SDS011;55064;49.636;12.164;2022-07-29T10:28:12;7.13;;;4.57;;
68247;SDS011;55064;49.636;12.164;2022-07-29T10:30:39;8.90;;;4.70;;
68247;SDS011;55064;49.636;12.164;2022-07-29T10:35:56;8.00;;;4.55;;
68247;SDS011;55064;49.636;12.164;2022-07-29T10:43:51;7.90;;;4.63;;
68247;SDS011;55064;49.636;12.164;2022-07-29T10:46:38;8.82;;;4.72;;
68247;SDS011;55064;49.636;12.164;2022-07-29T10:49:08;7.78;;;4.63;;
68247;SDS011;55064;49.636;12.164;2022-07-29T10:51:55;9.20;;;4.50;;
68247;SDS011;55064;49.636;12.164;2022-07-29T10:59:51;7.18;;;4.20;;
68247;SDS011;55064;49.636;12.164;2022-07-29T11:07:31;7.18;;;4.10;;
68247;SDS011;55064;49.636;12.164;2022-07-29T11:15:02;7.73;;;3.97;;
68247;SDS011;55064;49.636;12.164;2022-07-29T11:17:32;6.88;;;4.35;;
68247;SDS011;55064;49.636;12.164;2022-07-29T11:31:16;6.53;;;4.10;;
68247;SDS011;55064;49.636;12.164;2022-07-29T11:34:19;9.40;;;4.20;;
68247;SDS011;55064;49.636;12.164;2022-07-29T11:37:30;6.30;;;3.92;;
68247;SDS011;55064;49.636;12.164;2022-07-29T11:44:53;6.30;;;4.00;;
68247;SDS011;55064;49.636;12.164;2022-07-29T11:47:29;7.07;;;3.77;;
68247;SDS011;55064;49.636;12.164;2022-07-29T11:49:55;8.32;;;3.75;;
68247;SDS011;55064;49.636;12.164;2022-07-29T11:55:08;5.60;;;3.80;;
68247;SDS011;55064;49.636;12.164;2022-07-29T11:57:38;5.70;;;3.67;;
68247;SDS011;55064;49.636;12.164;2022-07-29T12:02:47;6.28;;;3.80;;
68247;SDS011;55064;49.636;12.164;2022-07-29T12:05:12;6.20;;;4.10;;
68247;SDS011;55064;49.636;12.164;2022-07-29T12:07:38;6.50;;;3.85;;
68247;SDS011;55064;49.636;12.164;2022-07-29T12:10:05;6.27;;;3.50;;
68247;SDS011;55064;49.636;12.164;2022-07-29T12:12:33;5.83;;;3.53;;
68247;SDS011;55064;49.636;12.164;2022-07-29T12:15:15;7.53;;;3.97;;
68247;SDS011;55064;49.636;12.164;2022-07-29T12:17:43;5.75;;;3.83;;
68247;SDS011;55064;49.636;12.164;2022-07-29T12:20:12;5.97;;;3.78;;
68247;SDS011;55064;49.636;12.164;2022-07-29T12:22:43;7.47;;;4.53;;
68247;SDS011;55064;49.636;12.164;2022-07-29T12:25:14;5.70;;;3.80;;
68247;SDS011;55064;49.636;12.164;2022-07-29T12:27:43;5.93;;;3.77;;
68247;SDS011;55064;49.636;12.164;2022-07-29T12:30:09;6.38;;;3.97;;
68247;SDS011;55064;49.636;12.164;2022-07-29T12:32:44;7.22;;;4.10;;
68247;SDS011;55064;49.636;12.164;2022-07-29T12:35:19;7.45;;;4.03;;
68247;SDS011;55064;49.636;12.164;2022-07-29T12:37:48;6.80;;;4.22;;
68247;SDS011;55064;49.636;12.164;2022-07-29T12:40:18;6.30;;;4.00;;
68247;SDS011;55064;49.636;12.164;2022-07-29T12:45:34;6.63;;;3.80;;
68247;SDS011;55064;49.636;12.164;2022-07-29T12:48:02;7.03;;;4.10;;
68247;SDS011;55064;49.636;12.164;2022-07-29T12:50:28;8.17;;;4.17;;
68247;SDS011;55064;49.636;12.164;2022-07-29T12:52:53;6.97;;;4.03;;
68247;SDS011;55064;49.636;12.164;2022-07-29T12:55:40;6.10;;;3.95;;
68247;SDS011;55064;49.636;12.164;2022-07-29T13:01:01;6.18;;;3.65;;
68247;SDS011;55064;49.636;12.164;2022-07-29T13:09:02;7.07;;;3.73;;
68247;SDS011;55064;49.636;12.164;2022-07-29T13:11:32;6.88;;;4.00;;
68247;SDS011;55064;49.636;12.164;2022-07-29T13:13:59;6.72;;;4.10;;
68247;SDS011;55064;49.636;12.164;2022-07-29T13:16:25;5.93;;;3.90;;
68247;SDS011;55064;49.636;12.164;2022-07-29T13:19:03;8.93;;;3.85;;
68247;SDS011;55064;49.636;12.164;2022-07-29T13:21:32;7.13;;;4.13;;
68247;SDS011;55064;49.636;12.164;2022-07-29T13:23:58;6.43;;;4.20;;
68247;SDS011;55064;49.636;12.164;2022-07-29T13:26:25;7.43;;;4.28;;
68247;SDS011;55064;49.636;12.164;2022-07-29T13:28:51;6.20;;;4.00;;
68247;SDS011;55064;49.636;12.164;2022-07-29T13:31:22;6.67;;;4.20;;
68247;SDS011;55064;49.636;12.164;2022-07-29T13:33:47;7.60;;;4.13;;
68247;SDS011;55064;49.636;12.164;2022-07-29T13:36:15;6.05;;;3.75;;
68247;SDS011;55064;49.636;12.164;2022-07-29T13:38:40;7.40;;;3.60;;
68247;SDS011;55064;49.636;12.164;2022-07-29T13:41:06;5.90;;;3.83;;
68247;SDS011;55064;49.636;12.164;2022-07-29T13:43:34;5.97;;;3.67;;
68247;SDS011;55064;49.636;12.164;2022-07-29T13:45:59;5.75;;;3.13;;
68247;SDS011;55064;49.636;12.164;2022-07-29T13:48:29;5.90;;;3.70;;
68247;SDS011;55064;49.636;12.164;2022-07-29T13:50:56;6.63;;;4.00;;
68247;SDS011;55064;49.636;12.164;2022-07-29T13:53:21;7.30;;;3.67;;
68247;SDS011;55064;49.636;12.164;2022-07-29T13:55:47;6.40;;;3.70;;
68247;SDS011;55064;49.636;12.164;2022-07-29T13:58:16;7.22;;;4.10;;
68247;SDS011;55064;49.636;12.164;2022-07-29T14:00:41;6.43;;;3.70;;
68247;SDS011;55064;49.636;12.164;2022-07-29T14:03:07;6.20;;;3.67;;
68247;SDS011;55064;49.636;12.164;2022-07-29T14:05:32;6.13;;;4.20;;
68247;SDS011;55064;49.636;12.164;2022-07-29T14:08:00;8.20;;;4.30;;
68247;SDS011;55064;49.636;12.164;2022-07-29T14:10:25;7.07;;;4.53;;
68247;SDS011;55064;49.636;12.164;2022-07-29T14:12:56;6.90;;;4.20;;
68247;SDS011;55064;49.636;12.164;2022-07-29T14:15:21;6.90;;;4.40;;
68247;SDS011;55064;49.636;12.164;2022-07-29T14:17:48;6.40;;;4.47;;
68247;SDS011;55064;49.636;12.164;2022-07-29T14:20:13;9.00;;;4.90;;
68247;SDS011;55064;49.636;12.164;2022-07-29T14:22:43;7.40;;;4.53;;
68247;SDS011;55064;49.636;12.164;2022-07-29T14:25:11;6.75;;;4.75;;
68247;SDS011;55064;49.636;12.164;2022-07-29T14:27:36;6.97;;;5.03;;
68247;SDS011;55064;49.636;12.164;2022-07-29T14:30:01;7.73;;;5.57;;
68247;SDS011;55064;49.636;12.164;2022-07-29T14:32:29;8.63;;;5.32;;
68247;SDS011;55064;49.636;12.164;2022-07-29T14:34:55;10.20;;;6.33;;
68247;SDS011;55064;49.636;12.164;2022-07-29T14:37:20;16.77;;;6.33;;
68247;SDS011;55064;49.636;12.164;2022-07-29T14:39:45;15.13;;;6.47;;
68247;SDS011;55064;49.636;12.164;2022-07-29T14:42:11;12.40;;;6.97;;
68247;SDS011;55064;49.636;12.164;2022-07-29T14:44:37;8.77;;;5.70;;
68247;SDS011;55064;49.636;12.164;2022-07-29T14:47:03;11.52;;;5.43;;
68247;SDS011;55064;49.636;12.164;2022-07-29T14:49:30;10.90;;;5.10;;
68247;SDS011;55064;49.636;12.164;2022-07-29T14:51:56;10.67;;;5.10;;
68247;SDS011;55064;49.636;12.164;2022-07-29T14:54:21;9.87;;;5.17;;
68247;SDS011;55064;49.636;12.164;2022-07-29T14:56:47;12.87;;;4.50;;
68247;SDS011;55064;49.636;12.164;2022-07-29T14:59:14;10.50;;;4.45;;
68247;SDS011;55064;49.636;12.164;2022-07-29T15:01:42;8.88;;;4.05;;
68247;SDS011;55064;49.636;12.164;2022-07-29T15:04:10;6.63;;;4.00;;
68247;SDS011;55064;49.636;12.164;2022-07-29T15:06:38;7.27;;;4.50;;
68247;SDS011;55064;49.636;12.164;2022-07-29T15:09:03;8.35;;;4.75;;
68247;SDS011;55064;49.636;12.164;2022-07-29T15:11:31;9.83;;;4.77;;
68247;SDS011;55064;49.636;12.164;2022-07-29T15:13:56;9.32;;;4.30;;
68247;SDS011;55064;49.636;12.164;2022-07-29T15:16:24;8.40;;;4.05;;
68247;SDS011;55064;49.636;12.164;2022-07-29T15:18:49;8.40;;;4.30;;
68247;SDS011;55064;49.636;12.164;2022-07-29T15:21:15;10.10;;;4.37;;
68247;SDS011;55064;49.636;12.164;2022-07-29T15:23:40;8.10;;;4.60;;
68247;SDS011;55064;49.636;12.164;2022-07-29T15:26:10;10.67;;;5.10;;
68247;SDS011;55064;49.636;12.164;2022-07-29T15:28:35;9.57;;;4.63;;
68247;SDS011;55064;49.636;12.164;2022-07-29T15:31:01;7.07;;;4.23;;
68247;SDS011;55064;49.636;12.164;2022-07-29T15:33:31;7.75;;;4.55;;
68247;SDS011;55064;49.636;12.164;2022-07-29T15:35:56;8.47;;;4.50;;
68247;SDS011;55064;49.636;12.164;2022-07-29T15:38:22;9.07;;;4.75;;
68247;SDS011;55064;49.636;12.164;2022-07-29T15:40:50;7.83;;;4.27;;
68247;SDS011;55064;49.636;12.164;2022-07-29T15:43:16;8.45;;;3.97;;
68247;SDS011;55064;49.636;12.164;2022-07-29T15:45:42;8.30;;;4.20;;
68247;SDS011;55064;49.636;12.164;2022-07-29T15:48:30;8.07;;;4.30;;
68247;SDS011;55064;49.636;12.164;2022-07-29T15:50:58;7.85;;;4.57;;
68247;SDS011;55064;49.636;12.164;2022-07-29T15:53:24;7.13;;;4.28;;
68247;SDS011;55064;49.636;12.164;2022-07-29T15:55:51;9.20;;;4.50;;
68247;SDS011;55064;49.636;12.164;2022-07-29T15:58:17;8.37;;;4.73;;